Straumvik — LEYJ — position and weather

sailwx.info

Track history (hours):
 
Tides and Currents Weather Stations Pressure Air Temp Water Temp Dewpoint Dewpoint Depression Visibility Wind Speed Wind Dir Waves Ship Positions

Straumvik

Last reported at 2016-Aug-08 16:03 UTC. Time now 2016-Aug-24 01:35 UTC.
Position N 67°49' E 014°26'.
Warning: this ship's position is 15 days out of date.

Length 50 m; draft 5 m.

Type: Ship. MMSI: 258260000.

Date/timePositionNaut miles runAvg speedWind from/ knotsBaromVisibWave heightAir tempDewpointWater temp
2016-Aug-08 16:03N 67°49' E 014°26'14 8.9
2016-Aug-08 14:32N 67°35' E 014°21'9 9.1
2016-Aug-08 13:34N 67°27' E 014°26'9 9.0
2016-Aug-08 12:33N 67°18' E 014°21'1 0.8
2016-Aug-08 11:34N 67°17' E 014°23'0 0.3
2016-Aug-08 10:33N 67°17' E 014°23'2 2.3
2016-Aug-08 09:34N 67°16' E 014°18'10 9.5
2016-Aug-08 08:33N 67°09' E 014°02'10 9.9
2016-Aug-08 07:32N 67°01' E 013°44'9 8.8
2016-Aug-08 06:33N 66°55' E 013°29'11 9.5
2016-Aug-08 05:25N 66°46' E 013°14'21 9.6
2016-Aug-08 03:16N 66°26' E 012°59'72 9.2
2016-Aug-07 19:27N 65°18' E 011°59'9 9.6
2016-Aug-07 18:33N 65°10' E 011°51'10 9.7
2016-Aug-07 17:33N 65°01' E 011°41'9 9.4
2016-Aug-07 16:34N 64°55' E 011°24'5 5.2
2016-Aug-07 15:34N 64°51' E 011°17'0 0.0
2016-Aug-07 14:34N 64°51' E 011°17'0 0.0
2016-Aug-07 13:34N 64°51' E 011°17'0 0.0
2016-Aug-07 12:34N 64°51' E 011°17'0 0.0
2016-Aug-07 11:33N 64°51' E 011°17'0 0.0
2016-Aug-07 10:34N 64°51' E 011°17'5 5.3
2016-Aug-07 09:34N 64°56' E 011°22'9 8.9
2016-Aug-07 08:33N 65°04' E 011°13'80 8.9
2016-Aug-06 23:34N 66°24' E 011°44'9 9.2
2016-Aug-06 22:33N 66°32' E 011°54'  
2016-Aug-03 08:32N 67°34' E 014°22'8 8.6
2016-Aug-03 07:34N 67°26' E 014°26'8 8.5
2016-Aug-03 06:34N 67°18' E 014°18'17 8.6
2016-Aug-03 04:32N 67°04' E 013°54'9 8.8
2016-Aug-03 03:32N 66°59' E 013°35'9 7.3
2016-Aug-03 02:19N 66°52' E 013°21'6 8.1
2016-Aug-03 01:33N 66°46' E 013°14'24 7.8
2016-Aug-02 22:28N 66°23' E 012°58'75 8.2
2016-Aug-02 13:23N 65°13' E 011°54'7 8.7
2016-Aug-02 12:34N 65°06' E 011°48'8 8.5
2016-Aug-02 11:34N 64°60' E 011°36'8 8.3
2016-Aug-02 10:34N 64°54' E 011°21'9 8.9
2016-Aug-02 09:33N 64°48' E 011°06'76 8.2
2016-Aug-02 00:18N 63°44' E 009°32'16 9.0
2016-Aug-01 22:31N 63°31' E 009°10'45 9.1
2016-Aug-01 17:33N 63°07' E 007°45'0 0.5
2016-Aug-01 16:33N 63°07' E 007°44'0 0.0
2016-Aug-01 15:33N 63°07' E 007°44'0 0.0
2016-Aug-01 14:32N 63°07' E 007°44'0 0.0
2016-Aug-01 13:34N 63°07' E 007°44'0 0.0
2016-Aug-01 12:34N 63°07' E 007°44'0 0.0
2016-Aug-01 11:33N 63°07' E 007°44'0 0.0
2016-Aug-01 10:34N 63°07' E 007°44'0 0.0
2016-Aug-01 09:34N 63°07' E 007°44'210 5.5
2016-Jul-30 19:34N 59°48' E 005°19'9 8.6
2016-Jul-30 18:33N 59°40' E 005°22'26 8.7
2016-Jul-30 15:33N 59°14' E 005°21'8 7.8
2016-Jul-30 14:33N 59°07' E 005°29'9 8.6
2016-Jul-30 13:33N 59°04' E 005°45'7 7.2
2016-Jul-30 12:33N 58°57' E 005°45'0 0.0
2016-Jul-30 11:33N 58°57' E 005°45'0 0.0
2016-Jul-30 10:33N 58°57' E 005°45'0 0.0
2016-Jul-30 09:33N 58°57' E 005°45'0 0.0
2016-Jul-30 08:34N 58°57' E 005°45'0 0.0
2016-Jul-30 07:33N 58°57' E 005°45'0 0.0
2016-Jul-30 06:34N 58°57' E 005°45'2 1.6
2016-Jul-30 05:34N 58°58' E 005°45'0 0.0
2016-Jul-30 04:34N 58°58' E 005°45'0 0.0
2016-Jul-30 03:34N 58°58' E 005°45'0 0.0
2016-Jul-30 02:33N 58°58' E 005°45'0 0.0
2016-Jul-30 01:33N 58°58' E 005°45'0 0.0
2016-Jul-30 00:34N 58°58' E 005°45'0 0.0
2016-Jul-29 23:34N 58°58' E 005°45'0 0.0
2016-Jul-29 22:34N 58°58' E 005°45'0 0.0
2016-Jul-29 21:33N 58°58' E 005°45'0 0.0
2016-Jul-29 20:33N 58°58' E 005°45'8 7.9
2016-Jul-29 19:33N 59°06' E 005°47'10 9.5
2016-Jul-29 18:33N 59°11' E 005°32'  
Track history (hours):
 
Tides and Currents Weather Stations Pressure Air Temp Water Temp Dewpoint Dewpoint Depression Visibility Wind Speed Wind Dir Waves Ship Positions

Straumvik

Last reported at 2016-Aug-08 16:03 UTC. Time now 2016-Aug-24 01:35 UTC.
Position N 67°49' E 014°26'.
Warning: this ship's position is 15 days out of date.

Length 50 m; draft 5 m.

Type: Ship. MMSI: 258260000.

Date/timePositionNaut miles runAvg speedWind from/ knotsBaromVisibWave heightAir tempDewpointWater temp
2016-Aug-08 16:03N 67°49' E 014°26'14 8.9
2016-Aug-08 14:32N 67°35' E 014°21'9 9.1
2016-Aug-08 13:34N 67°27' E 014°26'9 9.0
2016-Aug-08 12:33N 67°18' E 014°21'1 0.8
2016-Aug-08 11:34N 67°17' E 014°23'0 0.3
2016-Aug-08 10:33N 67°17' E 014°23'2 2.3
2016-Aug-08 09:34N 67°16' E 014°18'10 9.5
2016-Aug-08 08:33N 67°09' E 014°02'10 9.9
2016-Aug-08 07:32N 67°01' E 013°44'9 8.8
2016-Aug-08 06:33N 66°55' E 013°29'11 9.5
2016-Aug-08 05:25N 66°46' E 013°14'21 9.6
2016-Aug-08 03:16N 66°26' E 012°59'72 9.2
2016-Aug-07 19:27N 65°18' E 011°59'9 9.6
2016-Aug-07 18:33N 65°10' E 011°51'10 9.7
2016-Aug-07 17:33N 65°01' E 011°41'9 9.4
2016-Aug-07 16:34N 64°55' E 011°24'5 5.2
2016-Aug-07 15:34N 64°51' E 011°17'0 0.0
2016-Aug-07 14:34N 64°51' E 011°17'0 0.0
2016-Aug-07 13:34N 64°51' E 011°17'0 0.0
2016-Aug-07 12:34N 64°51' E 011°17'0 0.0
2016-Aug-07 11:33N 64°51' E 011°17'0 0.0
2016-Aug-07 10:34N 64°51' E 011°17'5 5.3
2016-Aug-07 09:34N 64°56' E 011°22'9 8.9
2016-Aug-07 08:33N 65°04' E 011°13'80 8.9
2016-Aug-06 23:34N 66°24' E 011°44'9 9.2
2016-Aug-06 22:33N 66°32' E 011°54'  
2016-Aug-03 08:32N 67°34' E 014°22'8 8.6
2016-Aug-03 07:34N 67°26' E 014°26'8 8.5
2016-Aug-03 06:34N 67°18' E 014°18'17 8.6
2016-Aug-03 04:32N 67°04' E 013°54'9 8.8
2016-Aug-03 03:32N 66°59' E 013°35'9 7.3
2016-Aug-03 02:19N 66°52' E 013°21'6 8.1
2016-Aug-03 01:33N 66°46' E 013°14'24 7.8
2016-Aug-02 22:28N 66°23' E 012°58'75 8.2
2016-Aug-02 13:23N 65°13' E 011°54'7 8.7
2016-Aug-02 12:34N 65°06' E 011°48'8 8.5
2016-Aug-02 11:34N 64°60' E 011°36'8 8.3
2016-Aug-02 10:34N 64°54' E 011°21'9 8.9
2016-Aug-02 09:33N 64°48' E 011°06'76 8.2
2016-Aug-02 00:18N 63°44' E 009°32'16 9.0
2016-Aug-01 22:31N 63°31' E 009°10'45 9.1
2016-Aug-01 17:33N 63°07' E 007°45'0 0.5
2016-Aug-01 16:33N 63°07' E 007°44'0 0.0
2016-Aug-01 15:33N 63°07' E 007°44'0 0.0
2016-Aug-01 14:32N 63°07' E 007°44'0 0.0
2016-Aug-01 13:34N 63°07' E 007°44'0 0.0
2016-Aug-01 12:34N 63°07' E 007°44'0 0.0
2016-Aug-01 11:33N 63°07' E 007°44'0 0.0
2016-Aug-01 10:34N 63°07' E 007°44'0 0.0
2016-Aug-01 09:34N 63°07' E 007°44'210 5.5
2016-Jul-30 19:34N 59°48' E 005°19'9 8.6
2016-Jul-30 18:33N 59°40' E 005°22'26 8.7
2016-Jul-30 15:33N 59°14' E 005°21'8 7.8
2016-Jul-30 14:33N 59°07' E 005°29'9 8.6
2016-Jul-30 13:33N 59°04' E 005°45'7 7.2
2016-Jul-30 12:33N 58°57' E 005°45'0 0.0
2016-Jul-30 11:33N 58°57' E 005°45'0 0.0
2016-Jul-30 10:33N 58°57' E 005°45'0 0.0
2016-Jul-30 09:33N 58°57' E 005°45'0 0.0
2016-Jul-30 08:34N 58°57' E 005°45'0 0.0
2016-Jul-30 07:33N 58°57' E 005°45'0 0.0
2016-Jul-30 06:34N 58°57' E 005°45'2 1.6
2016-Jul-30 05:34N 58°58' E 005°45'0 0.0
2016-Jul-30 04:34N 58°58' E 005°45'0 0.0
2016-Jul-30 03:34N 58°58' E 005°45'0 0.0
2016-Jul-30 02:33N 58°58' E 005°45'0 0.0
2016-Jul-30 01:33N 58°58' E 005°45'0 0.0
2016-Jul-30 00:34N 58°58' E 005°45'0 0.0
2016-Jul-29 23:34N 58°58' E 005°45'0 0.0
2016-Jul-29 22:34N 58°58' E 005°45'0 0.0
2016-Jul-29 21:33N 58°58' E 005°45'0 0.0
2016-Jul-29 20:33N 58°58' E 005°45'8 7.9
2016-Jul-29 19:33N 59°06' E 005°47'10 9.5
2016-Jul-29 18:33N 59°11' E 005°32'  

Dump ship's entire track history